< < Back
Terminal Aerodrome Forecast


Current Version              Previous Versions:   1  2  3  4  5  6  7  8  9  

Terminal Aerodrome Forecast

448
FTUS42 KMLB 300400 RRA
TAFDAB
TAF
KDAB 300409Z 3004/3024 VRB03KT P6SM FEW050 FEW250
     FM300900 VRB03KT 5SM BR FEW250
     FM301300 31005KT P6SM FEW040 FEW250
     FM301800 01007KT P6SM VCTS SCT040CB SCT250=

Latest METAR

945
SAUS80 KWBC 301700
MTRDAB
METAR KDAB 301653Z 25004KT 10SM FEW034 FEW120 SCT250 27/17 A2995 RMK AO2
SLP141 T02670172


USA.gov is the U.S. government's official web portal to all federal, state and local government web resources and services.